createdAt,value
2023-05-18T00:00:14.121Z,3.60
2023-05-18T00:03:02.823Z,4.80
2023-05-18T00:05:33.650Z,3.10
2023-05-18T00:08:01.115Z,3.80
2023-05-18T00:10:29.150Z,4.00
2023-05-18T00:12:56.208Z,3.70
2023-05-18T00:15:23.510Z,3.20
2023-05-18T00:17:52.862Z,6.20
2023-05-18T00:20:21.704Z,5.20
2023-05-18T00:22:50.292Z,6.40
2023-05-18T00:25:17.458Z,4.00
2023-05-18T00:27:44.655Z,5.00
2023-05-18T00:30:12.679Z,3.50
2023-05-18T00:32:40.074Z,4.20
2023-05-18T00:35:07.451Z,4.40
2023-05-18T00:37:34.457Z,3.10
2023-05-18T00:40:01.606Z,5.10
2023-05-18T00:42:28.714Z,4.10
2023-05-18T00:44:55.940Z,4.40
2023-05-18T00:47:23.177Z,3.30
2023-05-18T00:49:51.360Z,4.20
2023-05-18T00:52:18.969Z,4.30
2023-05-18T00:54:47.415Z,4.20
2023-05-18T00:57:14.607Z,5.10
2023-05-18T00:59:43.846Z,4.00
2023-05-18T01:02:11.769Z,4.60
2023-05-18T01:04:40.924Z,4.70
2023-05-18T01:07:08.509Z,4.70
2023-05-18T01:09:35.735Z,4.00
2023-05-18T01:12:17.641Z,5.90
2023-05-18T01:14:49.192Z,3.50
2023-05-18T01:17:34.442Z,4.20
2023-05-18T01:20:11.602Z,6.70
2023-05-18T01:22:50.958Z,3.50
2023-05-18T01:25:31.688Z,3.60
2023-05-18T01:28:06.463Z,5.90
2023-05-18T01:30:36.891Z,3.90
2023-05-18T01:33:09.291Z,6.00
2023-05-18T01:35:37.483Z,4.00
2023-05-18T01:38:04.836Z,4.10
2023-05-18T01:40:40.268Z,4.30
2023-05-18T01:43:13.551Z,5.50
2023-05-18T01:45:45.422Z,4.40
2023-05-18T01:48:18.481Z,4.30
2023-05-18T01:50:48.496Z,5.30
2023-05-18T01:53:35.040Z,5.30
2023-05-18T01:56:05.780Z,3.80
2023-05-18T01:58:35.123Z,4.20
2023-05-18T02:01:02.862Z,4.20
2023-05-18T02:03:34.129Z,4.20
2023-05-18T02:06:01.281Z,4.40
2023-05-18T02:08:28.398Z,3.90
2023-05-18T02:10:55.773Z,3.90
2023-05-18T02:13:22.755Z,4.70
2023-05-18T02:15:50.080Z,5.80
2023-05-18T02:18:17.355Z,3.90
2023-05-18T02:20:48.573Z,5.50
2023-05-18T02:23:17.177Z,5.30
2023-05-18T02:25:46.291Z,4.30
2023-05-18T02:28:14.052Z,5.50
2023-05-18T02:30:41.353Z,4.30
2023-05-18T02:33:10.543Z,4.10
2023-05-18T02:35:37.669Z,3.90
2023-05-18T02:38:04.731Z,4.20
2023-05-18T02:40:31.881Z,5.80
2023-05-18T02:43:00.856Z,3.90
2023-05-18T02:45:28.136Z,8.20
2023-05-18T02:47:56.123Z,4.70
2023-05-18T02:50:23.369Z,4.50
2023-05-18T02:52:50.936Z,5.50
2023-05-18T02:55:18.454Z,4.70
2023-05-18T02:58:01.947Z,4.20
2023-05-18T03:00:48.626Z,6.20
2023-05-18T03:03:16.853Z,4.70
2023-05-18T03:05:44.676Z,5.70
2023-05-18T03:08:11.824Z,6.30
2023-05-18T03:10:38.987Z,6.10
2023-05-18T03:13:06.345Z,4.50
2023-05-18T03:15:33.500Z,4.40
2023-05-18T03:18:00.604Z,4.60
2023-05-18T03:20:31.188Z,4.40
2023-05-18T03:22:58.553Z,4.50
2023-05-18T03:25:26.069Z,4.20
2023-05-18T03:27:53.612Z,4.70
2023-05-18T03:30:20.954Z,5.50
2023-05-18T03:32:48.130Z,5.70
2023-05-18T03:35:16.449Z,5.90
2023-05-18T03:37:43.479Z,5.90
2023-05-18T03:40:15.212Z,6.70
2023-05-18T03:42:43.014Z,6.70
2023-05-18T03:45:11.138Z,4.70
2023-05-18T03:47:39.645Z,4.90
2023-05-18T03:50:07.803Z,4.70
2023-05-18T03:52:36.600Z,4.60
2023-05-18T03:55:04.787Z,5.10
2023-05-18T03:57:32.748Z,6.50
2023-05-18T04:00:01.267Z,6.10
2023-05-18T04:02:30.652Z,6.00
2023-05-18T04:04:57.937Z,4.40
2023-05-18T04:07:27.639Z,5.70
2023-05-18T04:09:56.314Z,4.30
2023-05-18T04:12:23.445Z,5.10
2023-05-18T04:14:50.558Z,6.00
2023-05-18T04:17:22.448Z,4.50
2023-05-18T04:19:50.303Z,5.30
2023-05-18T04:22:18.222Z,4.00
2023-05-18T04:24:46.838Z,4.50
2023-05-18T04:27:14.681Z,2.40
2023-05-18T04:29:43.725Z,3.20
2023-05-18T04:32:11.355Z,2.80
2023-05-18T04:34:38.836Z,3.30
2023-05-18T04:37:06.485Z,2.60
2023-05-18T04:39:34.597Z,4.30
2023-05-18T04:42:05.202Z,4.00
2023-05-18T04:44:37.091Z,3.00
2023-05-18T04:47:07.976Z,3.60
2023-05-18T04:49:35.831Z,3.30
2023-05-18T04:52:06.028Z,3.70
2023-05-18T04:54:33.111Z,4.10
2023-05-18T04:57:01.619Z,5.10
2023-05-18T04:59:28.678Z,12.10
2023-05-18T05:01:55.773Z,6.60
2023-05-18T05:04:24.475Z,5.10
2023-05-18T05:06:51.530Z,11.00
2023-05-18T05:09:18.691Z,8.80
2023-05-18T05:11:46.207Z,5.00
2023-05-18T05:14:13.615Z,5.40
2023-05-18T05:16:41.425Z,9.80
2023-05-18T05:19:08.850Z,8.20
2023-05-18T05:21:36.222Z,7.80
2023-05-18T05:24:05.628Z,10.40
2023-05-18T05:26:33.115Z,8.60
2023-05-18T05:29:00.797Z,9.70
2023-05-18T05:31:28.177Z,11.50
2023-05-18T05:33:55.568Z,11.80
2023-05-18T05:36:23.479Z,11.50
2023-05-18T05:38:50.694Z,11.90
2023-05-18T05:41:17.791Z,13.60
2023-05-18T05:43:45.263Z,16.10
2023-05-18T05:46:13.582Z,16.90
2023-05-18T05:48:41.313Z,15.30
2023-05-18T05:51:09.085Z,14.10
2023-05-18T05:53:36.335Z,11.80
2023-05-18T05:56:04.212Z,11.50
2023-05-18T05:58:33.364Z,10.10
2023-05-18T06:01:00.743Z,10.10
2023-05-18T06:03:28.882Z,9.30
2023-05-18T06:05:57.978Z,10.50
2023-05-18T06:08:25.230Z,7.30
2023-05-18T06:10:53.474Z,9.00
2023-05-18T06:13:20.871Z,10.40
2023-05-18T06:15:58.213Z,11.20
2023-05-18T06:18:25.407Z,9.10
2023-05-18T06:20:56.266Z,11.20
2023-05-18T06:23:23.445Z,12.40
2023-05-18T06:26:04.175Z,12.00
2023-05-18T06:29:09.630Z,10.50
2023-05-18T06:31:55.551Z,14.90
2023-05-18T06:34:37.216Z,13.40
2023-05-18T06:37:04.461Z,13.70
2023-05-18T06:39:31.525Z,10.60
2023-05-18T06:41:58.758Z,9.70
2023-05-18T06:44:32.348Z,16.20
2023-05-18T06:47:20.095Z,12.20
2023-05-18T06:49:47.792Z,8.20
2023-05-18T06:52:15.967Z,10.00
2023-05-18T06:54:44.336Z,8.30
2023-05-18T06:57:11.810Z,7.60
2023-05-18T06:59:39.015Z,7.80
2023-05-18T07:02:07.112Z,7.10
2023-05-18T07:04:34.323Z,8.70
2023-05-18T07:07:01.519Z,7.90
2023-05-18T07:09:28.596Z,7.20
2023-05-18T07:11:55.607Z,7.40
2023-05-18T07:14:23.392Z,7.50
2023-05-18T07:16:50.623Z,6.90
2023-05-18T07:19:17.850Z,7.00
2023-05-18T07:21:44.985Z,7.70
2023-05-18T07:24:12.040Z,9.70
2023-05-18T07:26:39.194Z,9.10
2023-05-18T07:29:06.285Z,6.90
2023-05-18T07:31:33.489Z,6.10
2023-05-18T07:34:00.556Z,10.40
2023-05-18T07:36:28.335Z,6.40
2023-05-18T07:38:56.380Z,7.70
2023-05-18T07:41:23.840Z,9.00
2023-05-18T07:43:51.964Z,7.30
2023-05-18T07:46:19.667Z,6.40
2023-05-18T07:48:46.707Z,7.10
2023-05-18T07:51:14.883Z,7.20
2023-05-18T07:53:41.964Z,9.00
2023-05-18T07:56:09.003Z,8.00
2023-05-18T07:58:36.431Z,7.00
2023-05-18T08:01:03.834Z,8.20
2023-05-18T08:03:31.029Z,10.20
2023-05-18T08:05:59.626Z,7.50
2023-05-18T08:08:26.775Z,7.70
2023-05-18T08:10:53.802Z,7.00
2023-05-18T08:13:21.096Z,7.40
2023-05-18T08:15:56.096Z,7.10
2023-05-18T08:18:30.896Z,8.40
2023-05-18T08:20:57.972Z,6.00
2023-05-18T08:23:25.018Z,9.50
2023-05-18T08:25:52.227Z,8.60
2023-05-18T08:28:19.173Z,10.40
2023-05-18T08:30:46.196Z,7.10
2023-05-18T08:33:13.314Z,6.90
2023-05-18T08:35:41.100Z,9.20
2023-05-18T08:38:08.373Z,8.30
2023-05-18T08:40:50.302Z,9.10
2023-05-18T08:43:29.406Z,8.30
2023-05-18T08:46:06.796Z,10.40
2023-05-18T08:48:35.719Z,10.40
2023-05-18T08:51:04.053Z,9.90
2023-05-18T08:53:33.265Z,10.90
2023-05-18T08:56:01.118Z,8.60
2023-05-18T08:58:50.012Z,8.30
2023-05-18T09:01:18.045Z,9.40
2023-05-18T09:03:48.981Z,11.60
2023-05-18T09:06:17.831Z,11.40
2023-05-18T09:08:46.115Z,10.70
2023-05-18T09:11:14.646Z,13.10
2023-05-18T09:13:51.167Z,11.60
2023-05-18T09:16:18.938Z,12.10
2023-05-18T09:18:46.287Z,11.70
2023-05-18T09:21:13.378Z,12.30
2023-05-18T09:23:41.159Z,10.70
2023-05-18T09:26:09.708Z,11.00
2023-05-18T09:28:41.676Z,10.60
2023-05-18T09:31:15.942Z,17.20
2023-05-18T09:33:44.525Z,15.70
2023-05-18T09:36:12.250Z,18.70
2023-05-18T09:38:45.324Z,18.10
2023-05-18T09:41:15.885Z,17.20
2023-05-18T09:43:48.386Z,15.60
2023-05-18T09:46:15.733Z,13.90
2023-05-18T09:48:45.982Z,14.30
2023-05-18T09:51:16.090Z,15.20
2023-05-18T09:53:55.963Z,11.10
2023-05-18T09:56:27.409Z,10.70
2023-05-18T09:58:54.914Z,12.40
2023-05-18T10:01:22.526Z,12.50
2023-05-18T10:03:50.160Z,11.90
2023-05-18T10:06:19.511Z,12.90
2023-05-18T10:08:46.783Z,12.20
2023-05-18T10:11:19.208Z,10.70
2023-05-18T10:13:46.765Z,10.80
2023-05-18T10:16:15.125Z,11.70
2023-05-18T10:18:42.547Z,9.80
2023-05-18T10:21:13.861Z,12.80
2023-05-18T10:23:41.317Z,13.40
2023-05-18T10:26:10.050Z,9.30
2023-05-18T10:28:49.494Z,10.00
2023-05-18T10:31:16.991Z,10.10
2023-05-18T10:33:45.852Z,11.70
2023-05-18T10:36:13.118Z,9.60
2023-05-18T10:38:44.976Z,10.50
2023-05-18T10:41:14.072Z,8.50
2023-05-18T10:43:41.892Z,10.40
2023-05-18T10:46:09.590Z,10.70
2023-05-18T10:48:39.948Z,8.10
2023-05-18T10:51:07.676Z,8.60
2023-05-18T10:53:36.108Z,9.10
2023-05-18T10:56:03.781Z,7.90
2023-05-18T10:58:32.464Z,7.30
2023-05-18T11:01:02.746Z,6.70
2023-05-18T11:03:32.715Z,6.20
2023-05-18T11:06:06.264Z,5.30
2023-05-18T11:08:33.508Z,5.30
2023-05-18T11:11:07.136Z,5.20
2023-05-18T11:13:35.779Z,7.30
2023-05-18T11:16:05.407Z,5.70
2023-05-18T11:18:38.644Z,4.70
2023-05-18T11:21:23.725Z,4.60
2023-05-18T11:24:13.656Z,4.00
2023-05-18T11:26:42.393Z,4.90
2023-05-18T11:29:34.329Z,4.50
2023-05-18T11:32:02.490Z,4.10
2023-05-18T11:34:44.597Z,4.00
2023-05-18T11:37:37.776Z,4.20
2023-05-18T11:40:11.105Z,4.30
2023-05-18T11:46:57.928Z,5.00
2023-05-18T11:53:16.914Z,5.60
2023-05-18T11:55:45.410Z,7.10
2023-05-18T11:58:18.485Z,6.00
2023-05-18T12:00:49.338Z,8.10
2023-05-18T12:03:17.579Z,7.00
2023-05-18T12:05:48.893Z,7.50
2023-05-18T12:08:28.668Z,6.80
2023-05-18T12:10:56.812Z,6.90
2023-05-18T12:13:23.934Z,5.50
2023-05-18T12:15:51.528Z,8.40
2023-05-18T12:18:18.830Z,5.60
2023-05-18T12:20:49.238Z,6.90
2023-05-18T12:23:16.321Z,5.40
2023-05-18T12:25:43.435Z,6.20
2023-05-18T12:28:10.796Z,5.90
2023-05-18T12:30:39.070Z,7.40
2023-05-18T12:33:06.903Z,7.90
2023-05-18T12:35:34.683Z,4.70
2023-05-18T12:38:02.806Z,5.50
2023-05-18T12:40:48.479Z,6.60
2023-05-18T12:43:15.947Z,5.40
2023-05-18T12:45:44.318Z,6.00
2023-05-18T12:48:14.306Z,4.30
2023-05-18T12:50:50.074Z,5.60
2023-05-18T12:53:17.807Z,4.20
2023-05-18T12:55:45.476Z,4.70
2023-05-18T12:58:16.029Z,5.90
2023-05-18T13:00:47.625Z,4.80
2023-05-18T13:03:16.455Z,4.80
2023-05-18T13:05:46.209Z,5.50
2023-05-18T13:08:21.116Z,6.00
2023-05-18T13:10:55.245Z,4.80
2023-05-18T13:13:28.883Z,5.40
2023-05-18T13:15:58.790Z,4.60
2023-05-18T13:18:27.355Z,4.50
2023-05-18T13:20:57.698Z,3.90
2023-05-18T13:23:28.815Z,5.50
2023-05-18T13:25:58.251Z,3.90
2023-05-18T13:28:27.134Z,4.10
2023-05-18T13:30:54.402Z,3.40
2023-05-18T13:33:21.644Z,3.60
2023-05-18T13:40:19.630Z,4.70
2023-05-18T13:42:47.120Z,4.70
2023-05-18T13:45:16.252Z,3.30
2023-05-18T13:47:45.391Z,4.30
2023-05-18T13:50:12.603Z,4.00
2023-05-18T13:52:39.643Z,3.30
2023-05-18T13:55:07.533Z,6.20
2023-05-18T13:57:35.188Z,4.30
2023-05-18T14:00:06.452Z,3.80
2023-05-18T14:02:45.874Z,3.60
2023-05-18T14:05:13.930Z,3.60
2023-05-18T14:07:42.384Z,3.80
2023-05-18T14:10:11.271Z,4.00
2023-05-18T14:17:02.372Z,3.20
2023-05-18T14:19:29.548Z,3.70
2023-05-18T14:21:56.752Z,2.90
2023-05-18T14:24:23.920Z,3.10
2023-05-18T14:26:52.805Z,3.30
2023-05-18T14:29:20.230Z,3.10
2023-05-18T14:31:47.328Z,3.80
2023-05-18T14:38:45.817Z,3.70
2023-05-18T14:41:12.858Z,3.50
2023-05-18T14:43:39.890Z,3.60
2023-05-18T14:46:08.552Z,3.80
2023-05-18T14:48:36.257Z,4.10
2023-05-18T14:51:03.673Z,4.10
2023-05-18T14:53:30.685Z,3.60
2023-05-18T14:55:57.686Z,3.30
2023-05-18T14:58:24.691Z,4.40
2023-05-18T15:00:51.660Z,4.20
2023-05-18T15:03:18.809Z,2.80
2023-05-18T15:05:46.119Z,3.30
2023-05-18T15:08:13.164Z,3.40
2023-05-18T15:10:40.327Z,3.60
2023-05-18T15:13:07.483Z,3.40
2023-05-18T15:15:34.849Z,5.40
2023-05-18T15:18:02.338Z,4.30
2023-05-18T15:20:29.884Z,4.50
2023-05-18T15:22:57.234Z,4.20
2023-05-18T15:25:24.589Z,4.10
2023-05-18T15:27:53.282Z,4.30
2023-05-18T15:30:20.444Z,4.30
2023-05-18T15:32:47.819Z,3.40
2023-05-18T15:35:17.922Z,3.70
2023-05-18T15:37:45.176Z,3.60
2023-05-18T15:40:12.551Z,4.40
2023-05-18T15:42:40.104Z,6.30
2023-05-18T15:45:07.868Z,4.70
2023-05-18T15:47:34.993Z,4.10
2023-05-18T15:50:02.714Z,3.80
2023-05-18T15:52:30.365Z,3.50
2023-05-18T15:54:58.366Z,4.30
2023-05-18T15:57:25.802Z,4.50
2023-05-18T15:59:52.869Z,3.40
2023-05-18T16:02:20.346Z,3.30
2023-05-18T16:04:47.785Z,5.00
2023-05-18T16:07:14.937Z,3.10
2023-05-18T16:09:42.203Z,3.20
2023-05-18T16:12:09.660Z,3.20
2023-05-18T16:14:36.932Z,2.50
2023-05-18T16:17:04.362Z,3.40
2023-05-18T16:19:33.585Z,3.80
2023-05-18T16:22:00.843Z,3.10
2023-05-18T16:24:27.996Z,5.30
2023-05-18T16:26:56.182Z,3.40
2023-05-18T16:29:23.339Z,4.70
2023-05-18T16:31:51.339Z,3.60
2023-05-18T16:34:18.577Z,4.30
2023-05-18T16:36:45.989Z,3.10
2023-05-18T16:39:13.088Z,3.10
2023-05-18T16:41:40.658Z,4.50
2023-05-18T16:44:07.909Z,3.50
2023-05-18T16:46:35.382Z,4.80
2023-05-18T16:49:02.729Z,5.70
2023-05-18T16:51:30.905Z,3.40
2023-05-18T16:53:58.070Z,2.60
2023-05-18T16:56:26.550Z,3.00
2023-05-18T16:58:53.886Z,3.80
2023-05-18T17:01:28.130Z,4.40
2023-05-18T17:03:57.001Z,4.10
2023-05-18T17:06:25.362Z,5.00
2023-05-18T17:08:57.067Z,3.70
2023-05-18T17:11:26.159Z,3.70
2023-05-18T17:13:54.030Z,3.60
2023-05-18T17:16:21.736Z,2.70
2023-05-18T17:18:50.112Z,3.60
2023-05-18T17:21:17.339Z,4.40
2023-05-18T17:23:44.708Z,3.70
2023-05-18T17:26:11.765Z,3.80
2023-05-18T17:28:39.116Z,4.10
2023-05-18T17:31:06.610Z,4.20
2023-05-18T17:33:33.734Z,3.60
2023-05-18T17:36:00.748Z,6.30
2023-05-18T17:38:28.047Z,6.00
2023-05-18T17:40:56.020Z,3.80
2023-05-18T17:43:23.385Z,4.80
2023-05-18T17:45:50.947Z,8.10
2023-05-18T17:48:18.102Z,8.90
2023-05-18T17:50:47.301Z,4.80
2023-05-18T17:53:14.362Z,6.00
2023-05-18T17:55:42.131Z,7.30
2023-05-18T17:58:09.180Z,7.70
2023-05-18T18:00:36.340Z,9.50
2023-05-18T18:03:03.756Z,5.20
2023-05-18T18:05:32.509Z,4.50
2023-05-18T18:08:02.204Z,4.20
2023-05-18T18:10:31.375Z,5.00
2023-05-18T18:12:58.868Z,4.40
2023-05-18T18:15:27.556Z,4.80
2023-05-18T18:17:56.021Z,4.30
2023-05-18T18:20:23.430Z,4.60
2023-05-18T18:22:50.419Z,4.50
2023-05-18T18:25:18.898Z,5.70
2023-05-18T18:27:45.945Z,3.40
2023-05-18T18:30:13.977Z,3.80
2023-05-18T18:32:41.267Z,2.80
2023-05-18T18:35:08.723Z,3.70
2023-05-18T18:37:36.574Z,5.60
2023-05-18T18:40:06.436Z,2.90
2023-05-18T18:42:33.604Z,3.40
2023-05-18T18:45:00.716Z,4.60
2023-05-18T18:47:27.995Z,3.50
2023-05-18T18:49:55.318Z,4.60
2023-05-18T18:52:22.572Z,2.90
2023-05-18T18:54:49.807Z,4.60
2023-05-18T18:57:16.890Z,3.20
2023-05-18T18:59:44.048Z,3.00
2023-05-18T19:02:11.500Z,3.80
2023-05-18T19:04:39.101Z,4.50
2023-05-18T19:07:06.428Z,2.80
2023-05-18T19:09:35.739Z,4.00
2023-05-18T19:12:03.098Z,3.40
2023-05-18T19:14:30.148Z,2.90
2023-05-18T19:16:57.152Z,2.50
2023-05-18T19:19:24.376Z,3.70
2023-05-18T19:21:51.619Z,3.00
2023-05-18T19:24:18.672Z,3.50
2023-05-18T19:26:45.830Z,5.30
2023-05-18T19:29:13.907Z,2.90
2023-05-18T19:31:41.205Z,2.60
2023-05-18T19:34:08.628Z,3.60
2023-05-18T19:36:35.804Z,4.20
2023-05-18T19:39:04.268Z,2.70
2023-05-18T19:41:31.534Z,2.60
2023-05-18T19:43:58.679Z,5.70
2023-05-18T19:46:26.769Z,2.60
2023-05-18T19:48:56.310Z,3.10
2023-05-18T19:51:24.047Z,3.20
2023-05-18T19:53:51.085Z,3.80
2023-05-18T19:56:21.522Z,2.90
2023-05-18T19:58:49.183Z,2.70
2023-05-18T20:01:17.979Z,2.70
2023-05-18T20:03:46.788Z,3.10
2023-05-18T20:06:13.925Z,3.00
2023-05-18T20:08:42.309Z,3.30
2023-05-18T20:11:09.669Z,2.80
2023-05-18T20:13:36.829Z,3.00
2023-05-18T20:16:05.295Z,3.60
2023-05-18T20:18:34.510Z,3.00
2023-05-18T20:21:01.983Z,3.40
2023-05-18T20:23:29.655Z,3.40
2023-05-18T20:25:57.211Z,4.80
2023-05-18T20:28:26.509Z,2.60
2023-05-18T20:30:53.563Z,4.20
2023-05-18T20:33:22.156Z,3.70
2023-05-18T20:35:49.244Z,3.70
2023-05-18T20:38:16.466Z,3.00
2023-05-18T20:40:43.893Z,4.70
2023-05-18T20:43:17.557Z,4.60
2023-05-18T20:45:48.803Z,4.00
2023-05-18T20:48:24.123Z,3.30
2023-05-18T20:50:54.455Z,4.60
2023-05-18T20:53:21.810Z,3.50
2023-05-18T20:55:49.838Z,3.70
2023-05-18T20:58:19.830Z,3.40
2023-05-18T21:00:47.481Z,3.50
2023-05-18T21:03:14.998Z,4.70
2023-05-18T21:05:43.135Z,3.50
2023-05-18T21:08:10.685Z,2.90
2023-05-18T21:10:38.194Z,4.40
2023-05-18T21:13:05.351Z,3.40
2023-05-18T21:15:36.140Z,4.00
2023-05-18T21:18:03.844Z,3.80
2023-05-18T21:20:32.032Z,3.90
2023-05-18T21:22:59.342Z,3.40
2023-05-18T21:25:26.617Z,3.50
2023-05-18T21:27:53.977Z,3.40
2023-05-18T21:30:21.220Z,4.30
2023-05-18T21:32:49.205Z,4.40
2023-05-18T21:35:16.878Z,3.10
2023-05-18T21:37:44.166Z,3.80
2023-05-18T21:40:11.405Z,4.30
2023-05-18T21:42:44.440Z,4.40
2023-05-18T21:45:12.453Z,3.80
2023-05-18T21:47:39.834Z,5.40
2023-05-18T21:50:07.478Z,3.40
2023-05-18T21:52:34.840Z,5.30
2023-05-18T21:55:02.316Z,6.10
2023-05-18T21:57:29.664Z,6.40
2023-05-18T21:59:57.027Z,5.80
2023-05-18T22:02:24.214Z,5.40
2023-05-18T22:04:51.542Z,4.90
2023-05-18T22:07:18.900Z,4.40
2023-05-18T22:09:45.952Z,5.70
2023-05-18T22:12:13.311Z,4.40
2023-05-18T22:14:40.469Z,4.60
2023-05-18T22:17:07.682Z,6.60
2023-05-18T22:19:34.882Z,4.00
2023-05-18T22:22:02.155Z,6.90
2023-05-18T22:24:29.609Z,7.60
2023-05-18T22:26:56.976Z,10.00
2023-05-18T22:29:24.346Z,6.50
2023-05-18T22:31:51.802Z,7.00
2023-05-18T22:34:19.253Z,6.10
2023-05-18T22:36:46.295Z,5.80
2023-05-18T22:39:16.832Z,6.30
2023-05-18T22:41:44.196Z,7.20
2023-05-18T22:44:11.549Z,10.40
2023-05-18T22:46:38.639Z,9.50
2023-05-18T22:49:06.274Z,6.60
2023-05-18T22:51:33.706Z,7.70
2023-05-18T22:54:01.133Z,7.80
2023-05-18T22:56:28.352Z,6.60
2023-05-18T22:58:55.508Z,6.90
2023-05-18T23:01:22.816Z,8.00
2023-05-18T23:03:50.845Z,7.50
2023-05-18T23:06:21.785Z,6.20
2023-05-18T23:08:49.073Z,6.80
2023-05-18T23:11:17.942Z,9.80
2023-05-18T23:13:45.506Z,9.60
2023-05-18T23:16:12.841Z,8.90
2023-05-18T23:18:40.548Z,9.50
2023-05-18T23:21:08.617Z,8.90
2023-05-18T23:23:35.660Z,10.90
2023-05-18T23:26:03.124Z,8.20
2023-05-18T23:28:31.308Z,8.70
2023-05-18T23:31:00.828Z,6.70
2023-05-18T23:33:28.818Z,7.70
2023-05-18T23:36:02.186Z,8.80
2023-05-18T23:38:34.317Z,9.20
2023-05-18T23:41:05.781Z,7.60
2023-05-18T23:43:33.792Z,7.80
2023-05-18T23:46:01.361Z,8.20
2023-05-18T23:48:31.879Z,10.50
2023-05-18T23:51:02.889Z,10.00
2023-05-18T23:53:30.902Z,7.70
2023-05-18T23:55:59.387Z,8.30
2023-05-18T23:58:31.522Z,8.70
